createdAt,value
2022-08-16T00:00:03.332Z,4.93
2022-08-16T00:02:33.063Z,5.35
2022-08-16T00:05:00.635Z,4.78
2022-08-16T00:07:29.512Z,4.95
2022-08-16T00:09:57.838Z,5.05
2022-08-16T00:12:27.386Z,5.78
2022-08-16T00:14:56.686Z,6.07
2022-08-16T00:17:25.118Z,5.90
2022-08-16T00:19:53.646Z,5.28
2022-08-16T00:22:25.071Z,5.43
2022-08-16T00:24:54.268Z,5.65
2022-08-16T00:27:22.449Z,5.35
2022-08-16T00:30:08.473Z,5.70
2022-08-16T00:32:39.962Z,5.60
2022-08-16T00:35:15.037Z,6.82
2022-08-16T00:37:57.237Z,5.70
2022-08-16T00:40:36.781Z,6.75
2022-08-16T00:46:00.496Z,6.60
2022-08-16T00:48:31.677Z,8.18
2022-08-16T00:51:11.256Z,7.82
2022-08-16T00:53:43.216Z,6.65
2022-08-16T00:56:11.543Z,7.78
2022-08-16T00:58:58.516Z,7.38
2022-08-16T01:01:28.389Z,7.78
2022-08-16T01:03:55.613Z,6.47
2022-08-16T01:06:40.498Z,7.82
2022-08-16T01:09:09.458Z,7.20
2022-08-16T01:11:37.219Z,6.25
2022-08-16T01:14:29.904Z,6.65
2022-08-16T01:16:58.276Z,9.95
2022-08-16T01:19:31.919Z,7.00
2022-08-16T01:22:48.372Z,10.00
2022-08-16T01:25:07.170Z,8.02
2022-08-16T01:27:43.858Z,8.88
2022-08-16T01:30:19.458Z,9.40
2022-08-16T01:32:59.608Z,7.50
2022-08-16T01:35:52.286Z,10.50
2022-08-16T01:38:41.213Z,10.20
2022-08-16T01:41:24.457Z,11.15
2022-08-16T01:43:54.745Z,10.02
2022-08-16T01:46:39.188Z,7.50
2022-08-16T01:49:23.691Z,8.48
2022-08-16T01:51:56.011Z,8.32
2022-08-16T01:54:31.455Z,9.57
2022-08-16T01:57:00.649Z,10.45
2022-08-16T01:59:27.965Z,12.95
2022-08-16T02:01:59.963Z,11.98
2022-08-16T02:04:48.403Z,9.43
2022-08-16T02:07:18.394Z,10.38
2022-08-16T02:09:57.231Z,10.25
2022-08-16T02:12:50.823Z,11.38
2022-08-16T02:15:24.819Z,11.95
2022-08-16T02:17:55.542Z,12.98
2022-08-16T02:20:26.361Z,11.32
2022-08-16T02:22:57.712Z,12.45
2022-08-16T02:25:24.756Z,13.60
2022-08-16T02:28:11.652Z,9.88
2022-08-16T02:30:50.020Z,16.65
2022-08-16T02:33:18.446Z,12.13
2022-08-16T02:35:54.050Z,13.20
2022-08-16T02:38:28.222Z,13.35
2022-08-16T02:40:56.475Z,14.60
2022-08-16T02:43:26.680Z,14.57
2022-08-16T02:45:55.418Z,13.23
2022-08-16T02:48:28.964Z,12.40
2022-08-16T02:51:06.943Z,11.68
2022-08-16T02:53:45.274Z,11.07
2022-08-16T02:56:15.008Z,11.25
2022-08-16T02:58:44.124Z,11.82
2022-08-16T03:01:24.022Z,9.68
2022-08-16T03:04:41.037Z,8.80
2022-08-16T03:06:43.134Z,10.73
2022-08-16T03:09:20.449Z,11.20
2022-08-16T03:11:52.299Z,11.95
2022-08-16T03:14:21.245Z,13.35
2022-08-16T03:19:47.200Z,12.57
2022-08-16T03:22:27.735Z,11.35
2022-08-16T03:25:01.209Z,10.13
2022-08-16T03:27:32.423Z,15.30
2022-08-16T03:30:16.407Z,11.88
2022-08-16T03:32:51.353Z,11.63
2022-08-16T03:35:22.991Z,13.93
2022-08-16T03:38:03.013Z,11.18
2022-08-16T03:40:38.158Z,13.88
2022-08-16T03:43:19.866Z,11.55
2022-08-16T03:45:48.170Z,12.70
2022-08-16T03:48:18.281Z,13.68
2022-08-16T03:50:59.991Z,12.85
2022-08-16T03:53:37.646Z,13.23
2022-08-16T03:56:07.989Z,11.75
2022-08-16T03:58:48.422Z,12.82
2022-08-16T04:01:17.836Z,14.57
2022-08-16T04:03:44.738Z,14.75
2022-08-16T04:06:11.691Z,12.43
2022-08-16T04:08:39.686Z,15.57
2022-08-16T04:11:06.817Z,11.10
2022-08-16T04:13:59.198Z,12.15
2022-08-16T04:16:27.103Z,11.55
2022-08-16T04:19:02.337Z,12.77
2022-08-16T04:21:36.051Z,15.15
2022-08-16T04:24:12.800Z,15.85
2022-08-16T04:26:45.840Z,12.55
2022-08-16T04:29:23.566Z,13.85
2022-08-16T04:31:56.557Z,14.02
2022-08-16T04:34:30.787Z,13.20
2022-08-16T04:37:01.278Z,16.25
2022-08-16T04:39:45.944Z,16.02
2022-08-16T04:42:17.566Z,13.85
2022-08-16T04:44:54.190Z,16.95
2022-08-16T04:47:32.888Z,12.65
2022-08-16T04:50:14.493Z,14.85
2022-08-16T04:52:57.840Z,11.70
2022-08-16T04:55:31.873Z,15.32
2022-08-16T04:58:44.864Z,14.90
2022-08-16T05:00:52.740Z,13.43
2022-08-16T05:03:21.724Z,11.73
2022-08-16T05:05:55.349Z,14.98
2022-08-16T05:08:29.617Z,13.77
2022-08-16T05:11:08.577Z,10.35
2022-08-16T05:13:41.551Z,11.77
2022-08-16T05:16:21.797Z,13.32
2022-08-16T05:18:56.769Z,10.73
2022-08-16T05:21:24.686Z,12.25
2022-08-16T05:24:00.068Z,15.50
2022-08-16T05:26:31.132Z,17.48
2022-08-16T05:28:59.584Z,14.73
2022-08-16T05:31:29.819Z,17.98
2022-08-16T05:34:03.310Z,12.77
2022-08-16T05:36:34.131Z,13.80
2022-08-16T05:39:07.914Z,16.85
2022-08-16T05:41:45.339Z,16.45
2022-08-16T05:44:23.435Z,15.50
2022-08-16T05:46:53.086Z,16.27
2022-08-16T05:49:22.421Z,16.77
2022-08-16T05:51:55.479Z,13.88
2022-08-16T05:54:24.997Z,14.30
2022-08-16T05:56:55.798Z,16.10
2022-08-16T05:59:23.806Z,14.10
2022-08-16T06:01:52.063Z,11.32
2022-08-16T06:04:35.016Z,13.75
2022-08-16T06:07:07.061Z,12.02
2022-08-16T06:09:43.567Z,14.75
2022-08-16T06:12:12.818Z,14.20
2022-08-16T06:14:58.724Z,12.93
2022-08-16T06:17:41.701Z,13.57
2022-08-16T06:20:24.337Z,14.90
2022-08-16T06:25:41.102Z,13.13
2022-08-16T06:28:10.012Z,12.57
2022-08-16T06:30:43.752Z,15.07
2022-08-16T06:33:13.120Z,15.55
2022-08-16T06:35:47.321Z,11.52
2022-08-16T06:38:32.212Z,12.85
2022-08-16T06:41:14.030Z,13.45
2022-08-16T06:43:42.982Z,14.82
2022-08-16T06:46:31.885Z,13.75
2022-08-16T06:49:05.235Z,13.32
2022-08-16T06:51:45.871Z,13.13
2022-08-16T06:56:46.500Z,13.55
2022-08-16T06:59:14.968Z,14.95
2022-08-16T07:01:54.523Z,14.43
2022-08-16T07:04:33.107Z,11.60
2022-08-16T07:07:14.414Z,12.05
2022-08-16T07:09:42.259Z,11.63
2022-08-16T07:12:09.623Z,12.35
2022-08-16T07:14:40.983Z,15.27
2022-08-16T07:17:12.765Z,14.77
2022-08-16T07:20:03.866Z,12.10
2022-08-16T07:22:59.238Z,15.88
2022-08-16T07:25:40.848Z,12.63
2022-08-16T07:28:20.744Z,13.20
2022-08-16T07:30:52.639Z,16.40
2022-08-16T07:33:51.480Z,15.02
2022-08-16T07:36:24.078Z,11.27
2022-08-16T07:38:52.322Z,17.13
2022-08-16T07:41:20.010Z,17.05
2022-08-16T07:43:52.212Z,15.40
2022-08-16T07:46:39.258Z,11.02
2022-08-16T07:49:18.114Z,11.20
2022-08-16T07:51:45.543Z,10.30
2022-08-16T07:54:20.979Z,15.48
2022-08-16T07:56:53.750Z,11.32
2022-08-16T07:59:21.629Z,12.98
2022-08-16T08:01:49.411Z,12.90
2022-08-16T08:04:20.687Z,12.13
2022-08-16T08:06:51.214Z,13.73
2022-08-16T08:09:19.087Z,11.98
2022-08-16T08:11:59.995Z,11.02
2022-08-16T08:14:34.221Z,13.77
2022-08-16T08:17:01.840Z,11.55
2022-08-16T08:19:31.272Z,13.77
2022-08-16T08:22:02.073Z,12.05
2022-08-16T08:24:39.862Z,10.63
2022-08-16T08:27:11.687Z,11.13
2022-08-16T08:29:40.364Z,12.02
2022-08-16T08:33:02.208Z,10.38
2022-08-16T08:35:05.171Z,12.73
2022-08-16T08:37:55.537Z,14.23
2022-08-16T08:40:27.505Z,12.07
2022-08-16T08:43:00.417Z,12.90
2022-08-16T08:45:46.946Z,10.18
2022-08-16T08:48:34.282Z,11.05
2022-08-16T08:51:09.711Z,12.85
2022-08-16T08:53:58.467Z,12.60
2022-08-16T08:56:34.743Z,13.20
2022-08-16T08:59:21.033Z,11.45
2022-08-16T09:01:57.032Z,11.23
2022-08-16T09:04:39.397Z,8.85
2022-08-16T09:07:07.313Z,10.02
2022-08-16T09:09:40.888Z,12.85
2022-08-16T09:12:30.230Z,8.73
2022-08-16T09:15:03.095Z,9.70
2022-08-16T09:17:49.101Z,8.65
2022-08-16T09:20:19.921Z,11.43
2022-08-16T09:22:51.442Z,11.68
2022-08-16T09:25:26.129Z,10.18
2022-08-16T09:28:08.765Z,9.65
2022-08-16T09:30:44.092Z,12.35
2022-08-16T09:33:12.565Z,10.15
2022-08-16T09:35:42.911Z,12.82
2022-08-16T09:38:22.333Z,8.82
2022-08-16T09:40:59.969Z,10.07
2022-08-16T09:43:58.381Z,9.05
2022-08-16T09:46:45.635Z,8.30
2022-08-16T09:49:03.244Z,10.73
2022-08-16T09:51:37.384Z,12.15
2022-08-16T09:54:05.611Z,11.35
2022-08-16T09:56:34.155Z,9.32
2022-08-16T09:59:05.245Z,9.48
2022-08-16T10:01:36.791Z,10.55
2022-08-16T10:04:13.050Z,10.35
2022-08-16T10:06:54.165Z,8.88
2022-08-16T10:09:25.195Z,11.00
2022-08-16T10:12:11.715Z,10.32
2022-08-16T10:14:46.309Z,10.80
2022-08-16T10:17:13.369Z,11.20
2022-08-16T10:19:40.275Z,8.68
2022-08-16T10:22:07.209Z,11.43
2022-08-16T10:24:34.631Z,12.02
2022-08-16T10:27:25.833Z,12.18
2022-08-16T10:30:01.400Z,13.20
2022-08-16T10:32:33.482Z,11.00
2022-08-16T10:35:03.444Z,13.13
2022-08-16T10:37:32.774Z,12.77
2022-08-16T10:40:28.464Z,11.20
2022-08-16T10:42:55.314Z,13.57
2022-08-16T10:45:22.201Z,9.48
2022-08-16T10:48:00.895Z,11.90
2022-08-16T10:50:31.130Z,10.57
2022-08-16T10:52:59.335Z,12.55
2022-08-16T10:55:45.261Z,13.00
2022-08-16T10:58:14.164Z,12.52
2022-08-16T11:00:46.067Z,14.02
2022-08-16T11:06:00.868Z,13.52
2022-08-16T11:08:35.447Z,12.15
2022-08-16T11:11:06.862Z,9.85
2022-08-16T11:19:16.792Z,6.97
2022-08-16T11:24:41.326Z,9.65
2022-08-16T11:27:23.330Z,7.85
2022-08-16T11:29:55.180Z,8.32
2022-08-16T11:32:30.339Z,8.23
2022-08-16T11:35:10.307Z,5.78
2022-08-16T11:40:32.429Z,4.63
2022-08-16T11:43:01.466Z,3.60
2022-08-16T11:45:33.520Z,5.18
2022-08-16T11:48:03.062Z,3.20
2022-08-16T11:50:33.279Z,2.63
2022-08-16T11:53:02.294Z,4.30
2022-08-16T11:55:30.626Z,2.67
2022-08-16T11:57:57.658Z,4.47
2022-08-16T12:00:33.966Z,2.15
2022-08-16T12:03:14.480Z,2.67
2022-08-16T12:05:42.537Z,5.38
2022-08-16T12:08:09.496Z,1.92
2022-08-16T12:10:37.870Z,1.83
2022-08-16T12:13:10.258Z,2.58
2022-08-16T12:15:37.807Z,1.63
2022-08-16T12:18:06.863Z,1.50
2022-08-16T12:20:35.885Z,2.65
2022-08-16T12:23:03.698Z,2.45
2022-08-16T12:25:31.554Z,1.20
2022-08-16T12:27:58.973Z,1.35
2022-08-16T12:30:37.778Z,0.85
2022-08-16T12:33:06.927Z,0.70
2022-08-16T12:35:34.425Z,3.00
2022-08-16T12:38:37.963Z,1.75
2022-08-16T12:40:50.870Z,0.85
2022-08-16T12:43:23.539Z,1.33
2022-08-16T12:45:52.057Z,0.90
2022-08-16T12:48:42.395Z,0.73
2022-08-16T12:51:19.410Z,1.15
2022-08-16T12:53:53.244Z,0.85
2022-08-16T12:56:21.301Z,2.08
2022-08-16T12:58:51.828Z,0.65
2022-08-16T13:01:22.640Z,1.27
2022-08-16T13:03:59.275Z,2.72
2022-08-16T13:06:33.509Z,0.60
2022-08-16T13:09:02.399Z,0.65
2022-08-16T13:11:36.028Z,1.13
2022-08-16T13:14:05.220Z,1.20
2022-08-16T13:16:32.241Z,1.88
2022-08-16T13:19:01.180Z,1.50
2022-08-16T13:21:28.159Z,1.77
2022-08-16T13:23:55.427Z,0.70
2022-08-16T13:26:24.102Z,1.13
2022-08-16T13:28:51.162Z,1.13
2022-08-16T13:31:18.022Z,0.93
2022-08-16T13:33:45.419Z,1.55
2022-08-16T13:39:00.332Z,0.80
2022-08-16T13:41:30.086Z,2.22
2022-08-16T13:43:59.292Z,1.42
2022-08-16T13:46:27.038Z,1.02
2022-08-16T13:48:54.000Z,2.17
2022-08-16T13:51:23.822Z,1.55
2022-08-16T13:53:59.132Z,3.17
2022-08-16T13:56:38.123Z,2.05
2022-08-16T13:59:13.965Z,1.23
2022-08-16T14:01:55.243Z,1.85
2022-08-16T14:04:28.243Z,1.02
2022-08-16T14:06:58.263Z,1.52
2022-08-16T14:09:27.244Z,0.80
2022-08-16T14:11:56.394Z,2.05
2022-08-16T14:14:29.349Z,1.85
2022-08-16T14:16:58.149Z,1.85
2022-08-16T14:19:26.543Z,2.63
2022-08-16T14:22:14.766Z,1.15
2022-08-16T14:24:47.434Z,1.75
2022-08-16T14:27:16.316Z,1.15
2022-08-16T14:29:44.487Z,1.25
2022-08-16T14:32:21.902Z,1.40
2022-08-16T14:34:59.114Z,1.50
2022-08-16T14:37:26.209Z,2.15
2022-08-16T14:39:54.931Z,1.50
2022-08-16T14:42:23.289Z,1.70
2022-08-16T14:44:50.334Z,1.63
2022-08-16T14:47:17.410Z,1.40
2022-08-16T14:49:44.412Z,1.65
2022-08-16T14:52:27.629Z,1.50
2022-08-16T14:55:03.013Z,4.97
2022-08-16T14:57:29.936Z,4.75
2022-08-16T15:00:00.777Z,3.35
2022-08-16T15:02:35.103Z,1.95
2022-08-16T15:05:04.427Z,2.20
2022-08-16T15:07:35.006Z,1.70
2022-08-16T15:10:03.502Z,2.50
2022-08-16T15:12:34.234Z,2.22
2022-08-16T15:15:12.617Z,3.20
2022-08-16T15:17:55.816Z,3.15
2022-08-16T15:20:26.384Z,4.20
2022-08-16T15:22:53.726Z,4.15
2022-08-16T15:25:27.489Z,4.00
2022-08-16T15:27:56.655Z,4.38
2022-08-16T15:30:57.982Z,3.58
2022-08-16T15:33:16.747Z,4.22
2022-08-16T15:35:43.919Z,4.53
2022-08-16T15:38:55.059Z,5.88
2022-08-16T15:40:59.051Z,3.30
2022-08-16T15:43:33.930Z,3.28
2022-08-16T15:46:35.768Z,4.53
2022-08-16T15:49:13.520Z,6.88
2022-08-16T15:51:41.380Z,6.38
2022-08-16T15:54:21.036Z,4.68
2022-08-16T15:57:02.747Z,5.30
2022-08-16T15:59:47.926Z,5.35
2022-08-16T16:02:27.211Z,4.20
2022-08-16T16:04:55.053Z,4.97
2022-08-16T16:07:22.273Z,5.60
2022-08-16T16:09:49.695Z,4.05
2022-08-16T16:12:50.393Z,4.30
2022-08-16T16:15:07.351Z,5.43
2022-08-16T16:17:34.276Z,6.75
2022-08-16T16:20:08.149Z,5.00
2022-08-16T16:22:43.538Z,13.80
2022-08-16T16:25:10.735Z,3.92
2022-08-16T16:27:37.669Z,6.18
2022-08-16T16:30:32.531Z,4.10
2022-08-16T16:32:52.380Z,5.20
2022-08-16T16:35:19.538Z,6.75
2022-08-16T16:37:53.007Z,3.85
2022-08-16T16:40:28.868Z,5.35
2022-08-16T16:43:00.439Z,5.93
2022-08-16T16:45:34.810Z,5.28
2022-08-16T16:48:12.579Z,4.97
2022-08-16T16:50:44.581Z,5.95
2022-08-16T16:53:16.869Z,5.60
2022-08-16T16:55:47.487Z,5.68
2022-08-16T16:58:38.785Z,8.40
2022-08-16T17:01:07.923Z,5.55
2022-08-16T17:03:35.488Z,5.32
2022-08-16T17:06:09.153Z,6.30
2022-08-16T17:08:41.527Z,6.03
2022-08-16T17:11:12.341Z,5.88
2022-08-16T17:13:39.599Z,5.45
2022-08-16T17:16:08.791Z,6.05
2022-08-16T17:19:17.397Z,6.00
2022-08-16T17:21:34.424Z,6.75
2022-08-16T17:24:17.911Z,6.80
2022-08-16T17:26:49.216Z,7.18
2022-08-16T17:29:23.558Z,5.20
2022-08-16T17:32:02.331Z,7.30
2022-08-16T17:34:46.742Z,7.18
2022-08-16T17:37:18.075Z,7.85
2022-08-16T17:40:25.605Z,8.23
2022-08-16T17:42:52.566Z,6.10
2022-08-16T17:45:19.788Z,6.47
2022-08-16T17:47:46.635Z,6.10
2022-08-16T17:50:13.454Z,5.70
2022-08-16T17:52:48.982Z,6.55
2022-08-16T17:55:22.655Z,7.95
2022-08-16T17:57:50.322Z,6.28
2022-08-16T18:00:20.371Z,6.65
2022-08-16T18:02:50.152Z,9.50
2022-08-16T18:05:17.549Z,7.40
2022-08-16T18:07:44.706Z,7.05
2022-08-16T18:10:12.667Z,7.82
2022-08-16T18:12:54.351Z,5.88
2022-08-16T18:15:23.497Z,8.25
2022-08-16T18:17:53.216Z,8.48
2022-08-16T18:20:42.185Z,7.43
2022-08-16T18:23:17.866Z,8.52
2022-08-16T18:25:49.824Z,6.95
2022-08-16T18:28:17.080Z,8.32
2022-08-16T18:30:47.974Z,8.73
2022-08-16T18:33:18.061Z,8.50
2022-08-16T18:35:44.962Z,7.38
2022-08-16T18:38:11.993Z,9.73
2022-08-16T18:40:39.226Z,8.15
2022-08-16T18:43:13.794Z,9.10
2022-08-16T18:45:42.132Z,8.18
2022-08-16T18:48:09.135Z,7.57
2022-08-16T18:50:59.394Z,9.65
2022-08-16T18:53:23.748Z,7.90
2022-08-16T18:55:53.331Z,10.32
2022-08-16T18:58:20.235Z,8.60
2022-08-16T19:00:56.334Z,9.38
2022-08-16T19:03:31.548Z,10.80
2022-08-16T19:06:13.656Z,9.48
2022-08-16T19:08:41.759Z,9.90
2022-08-16T19:11:13.830Z,10.13
2022-08-16T19:13:40.789Z,8.88
2022-08-16T19:16:07.787Z,11.00
2022-08-16T19:18:36.824Z,9.45
2022-08-16T19:21:04.722Z,10.73
2022-08-16T19:23:34.378Z,10.20
2022-08-16T19:26:07.432Z,10.18
2022-08-16T19:28:51.138Z,8.27
2022-08-16T19:31:28.761Z,10.80
2022-08-16T19:33:56.698Z,11.23
2022-08-16T19:36:33.921Z,10.23
2022-08-16T19:39:06.946Z,11.00
2022-08-16T19:41:37.223Z,10.93
2022-08-16T19:44:04.783Z,10.57
2022-08-16T19:46:31.962Z,10.57
2022-08-16T19:48:58.969Z,9.60
2022-08-16T19:51:25.883Z,11.60
2022-08-16T19:53:52.741Z,11.52
2022-08-16T19:56:21.530Z,12.45
2022-08-16T19:59:16.467Z,11.90
2022-08-16T20:01:41.123Z,10.35
2022-08-16T20:04:11.975Z,11.68
2022-08-16T20:06:39.611Z,10.25
2022-08-16T20:09:06.862Z,11.40
2022-08-16T20:11:35.475Z,9.48
2022-08-16T20:14:03.349Z,11.73
2022-08-16T20:16:30.245Z,11.27
2022-08-16T20:18:57.087Z,13.30
2022-08-16T20:21:24.349Z,12.80
2022-08-16T20:23:51.328Z,11.93
2022-08-16T20:26:18.923Z,12.73
2022-08-16T20:28:54.346Z,11.90
2022-08-16T20:31:22.780Z,12.07
2022-08-16T20:33:50.433Z,10.88
2022-08-16T20:36:17.526Z,10.15
2022-08-16T20:38:47.603Z,12.68
2022-08-16T20:41:16.003Z,12.38
2022-08-16T20:43:43.157Z,11.05
2022-08-16T20:46:10.691Z,11.18
2022-08-16T20:48:37.690Z,14.27
2022-08-16T20:51:06.753Z,13.07
2022-08-16T20:53:33.999Z,14.23
2022-08-16T20:56:01.047Z,15.88
2022-08-16T20:58:27.936Z,15.95
2022-08-16T21:00:54.876Z,15.25
2022-08-16T21:03:21.830Z,15.75
2022-08-16T21:05:48.728Z,13.60
2022-08-16T21:08:50.169Z,12.07
2022-08-16T21:11:03.678Z,11.45
2022-08-16T21:13:31.051Z,12.27
2022-08-16T21:15:58.676Z,12.60
2022-08-16T21:18:25.548Z,14.25
2022-08-16T21:20:52.533Z,14.20
2022-08-16T21:23:19.473Z,10.93
2022-08-16T21:25:58.527Z,12.43
2022-08-16T21:28:40.877Z,11.82
2022-08-16T21:31:14.084Z,11.20
2022-08-16T21:33:41.215Z,15.82
2022-08-16T21:36:08.407Z,11.27
2022-08-16T21:38:35.328Z,12.18
2022-08-16T21:41:02.878Z,10.52
2022-08-16T21:43:32.684Z,15.52
2022-08-16T21:46:03.025Z,14.80
2022-08-16T21:48:33.498Z,14.10
2022-08-16T21:51:01.341Z,14.02
2022-08-16T21:53:28.467Z,12.80
2022-08-16T21:55:56.573Z,15.13
2022-08-16T21:58:24.006Z,23.52
2022-08-16T22:00:51.032Z,22.98
2022-08-16T22:03:18.041Z,17.60
2022-08-16T22:05:46.745Z,16.23
2022-08-16T22:08:34.210Z,14.40
2022-08-16T22:11:07.283Z,14.20
2022-08-16T22:13:36.871Z,14.40
2022-08-16T22:16:07.471Z,13.75
2022-08-16T22:18:34.379Z,15.02
2022-08-16T22:21:01.301Z,13.40
2022-08-16T22:23:28.928Z,13.93
2022-08-16T22:25:56.265Z,20.33
2022-08-16T22:28:23.259Z,14.88
2022-08-16T22:30:50.426Z,13.23
2022-08-16T22:33:22.837Z,13.00
2022-08-16T22:35:54.334Z,16.08
2022-08-16T22:38:56.717Z,13.73
2022-08-16T22:41:08.246Z,13.30
2022-08-16T22:43:35.150Z,15.55
2022-08-16T22:46:02.376Z,14.15
2022-08-16T22:48:29.463Z,14.40
2022-08-16T22:50:56.401Z,14.52
2022-08-16T22:53:23.476Z,15.70
2022-08-16T22:55:50.753Z,12.50
2022-08-16T22:58:18.537Z,14.60
2022-08-16T23:00:45.448Z,12.15
2022-08-16T23:03:14.583Z,16.00
2022-08-16T23:05:51.888Z,14.48
2022-08-16T23:08:38.338Z,11.43
2022-08-16T23:11:09.159Z,17.05
2022-08-16T23:13:36.137Z,12.77
2022-08-16T23:16:11.370Z,11.57
2022-08-16T23:18:39.599Z,14.00
2022-08-16T23:21:08.547Z,16.10
2022-08-16T23:23:35.599Z,11.38
2022-08-16T23:26:02.508Z,12.43
2022-08-16T23:28:49.767Z,13.25
2022-08-16T23:31:16.755Z,12.93
2022-08-16T23:33:43.608Z,11.77
2022-08-16T23:36:10.990Z,14.18
2022-08-16T23:38:39.494Z,14.85
2022-08-16T23:41:09.470Z,11.98
2022-08-16T23:43:41.739Z,14.35
2022-08-16T23:46:15.169Z,14.88
2022-08-16T23:49:56.550Z,14.70
2022-08-16T23:51:29.356Z,13.05
2022-08-16T23:53:56.352Z,13.68
2022-08-16T23:56:23.335Z,12.77
2022-08-16T23:58:52.620Z,13.60
